createdAt,value
2023-07-04T00:01:01.665Z,5.13
2023-07-04T00:04:08.877Z,5.72
2023-07-04T00:07:11.507Z,5.68
2023-07-04T00:10:14.163Z,5.40
2023-07-04T00:13:16.770Z,5.20
2023-07-04T00:16:20.578Z,5.47
2023-07-04T00:19:23.211Z,5.30
2023-07-04T00:22:25.746Z,5.60
2023-07-04T00:25:28.523Z,5.03
2023-07-04T00:28:31.435Z,5.40
2023-07-04T00:31:34.217Z,5.30
2023-07-04T00:34:37.521Z,5.35
2023-07-04T00:37:40.039Z,5.68
2023-07-04T00:40:42.619Z,5.65
2023-07-04T00:44:12.791Z,5.90
2023-07-04T00:47:23.200Z,5.80
2023-07-04T00:50:32.450Z,6.00
2023-07-04T00:53:36.834Z,6.15
2023-07-04T00:56:40.845Z,5.47
2023-07-04T00:59:49.478Z,5.37
2023-07-04T01:03:00.605Z,5.78
2023-07-04T01:06:15.440Z,5.70
2023-07-04T01:09:19.530Z,5.55
2023-07-04T01:12:22.739Z,6.18
2023-07-04T01:15:26.223Z,5.33
2023-07-04T01:18:29.181Z,5.38
2023-07-04T01:21:31.788Z,5.20
2023-07-04T01:24:59.143Z,5.50
2023-07-04T01:28:04.348Z,5.13
2023-07-04T01:31:07.848Z,5.43
2023-07-04T01:34:11.868Z,5.00
2023-07-04T01:37:15.308Z,5.43
2023-07-04T01:40:18.615Z,5.40
2023-07-04T01:43:21.184Z,5.47
2023-07-04T01:46:24.319Z,5.27
2023-07-04T01:49:27.339Z,5.57
2023-07-04T01:52:31.098Z,5.40
2023-07-04T01:55:33.616Z,5.65
2023-07-04T01:58:36.172Z,5.72
2023-07-04T02:01:38.752Z,5.87
2023-07-04T02:04:42.264Z,5.70
2023-07-04T02:07:44.814Z,5.63
2023-07-04T02:10:47.463Z,5.53
2023-07-04T02:13:50.055Z,5.40
2023-07-04T02:16:53.513Z,5.60
2023-07-04T02:19:56.145Z,5.80
2023-07-04T02:22:58.696Z,5.75
2023-07-04T02:26:01.209Z,5.55
2023-07-04T02:29:04.758Z,6.07
2023-07-04T02:32:07.980Z,6.00
2023-07-04T02:35:11.492Z,6.10
2023-07-04T02:38:17.932Z,6.07
2023-07-04T02:41:20.980Z,6.25
2023-07-04T02:44:27.065Z,5.72
2023-07-04T02:47:30.592Z,6.03
2023-07-04T02:50:37.769Z,5.25
2023-07-04T02:53:40.567Z,5.82
2023-07-04T02:56:43.843Z,5.65
2023-07-04T02:59:46.911Z,5.55
2023-07-04T03:02:51.015Z,5.60
2023-07-04T03:05:54.558Z,5.40
2023-07-04T03:08:58.095Z,5.70
2023-07-04T03:12:01.493Z,5.53
2023-07-04T03:15:07.857Z,5.63
2023-07-04T03:18:15.146Z,5.37
2023-07-04T03:21:19.608Z,5.35
2023-07-04T03:24:22.182Z,5.55
2023-07-04T03:27:25.506Z,5.32
2023-07-04T03:30:30.325Z,5.68
2023-07-04T03:33:39.679Z,5.33
2023-07-04T03:36:42.329Z,5.20
2023-07-04T03:39:44.949Z,5.53
2023-07-04T03:42:47.570Z,5.35
2023-07-04T03:45:52.688Z,5.60
2023-07-04T03:48:56.787Z,5.90
2023-07-04T03:51:59.419Z,5.60
2023-07-04T03:55:03.574Z,5.70
2023-07-04T03:58:06.216Z,5.50
2023-07-04T04:01:08.822Z,5.93
2023-07-04T04:04:11.581Z,6.20
2023-07-04T04:07:14.380Z,5.53
2023-07-04T04:10:18.013Z,6.07
2023-07-04T04:13:20.647Z,5.82
2023-07-04T04:16:23.521Z,5.72
2023-07-04T04:19:27.092Z,5.40
2023-07-04T04:22:29.709Z,5.65
2023-07-04T04:25:39.543Z,6.15
2023-07-04T04:28:42.258Z,5.90
2023-07-04T04:31:48.426Z,6.03
2023-07-04T04:34:51.206Z,6.20
2023-07-04T04:37:53.797Z,5.80
2023-07-04T04:41:04.093Z,6.00
2023-07-04T04:44:06.992Z,6.20
2023-07-04T04:47:10.239Z,5.45
2023-07-04T04:50:12.786Z,5.80
2023-07-04T04:53:15.922Z,5.70
2023-07-04T04:56:18.500Z,4.88
2023-07-04T04:59:21.184Z,5.55
2023-07-04T05:02:24.883Z,5.13
2023-07-04T05:05:27.914Z,4.90
2023-07-04T05:08:30.474Z,4.90
2023-07-04T05:11:34.174Z,5.30
2023-07-04T05:14:36.678Z,5.05
2023-07-04T05:17:39.224Z,5.05
2023-07-04T05:20:42.717Z,5.10
2023-07-04T05:23:47.362Z,5.45
2023-07-04T05:26:49.901Z,5.18
2023-07-04T05:29:52.489Z,5.07
2023-07-04T05:32:55.120Z,4.97
2023-07-04T05:36:08.846Z,4.93
2023-07-04T05:39:11.462Z,4.78
2023-07-04T05:42:14.664Z,4.75
2023-07-04T05:45:17.259Z,4.95
2023-07-04T05:48:20.574Z,5.10
2023-07-04T05:51:23.719Z,5.00
2023-07-04T05:54:26.298Z,5.28
2023-07-04T05:57:33.098Z,4.88
2023-07-04T06:00:36.285Z,4.75
2023-07-04T06:03:39.991Z,5.25
2023-07-04T06:06:52.603Z,4.80
2023-07-04T06:09:55.126Z,4.85
2023-07-04T06:12:57.570Z,5.68
2023-07-04T06:16:03.467Z,5.45
2023-07-04T06:19:06.190Z,5.57
2023-07-04T06:22:08.819Z,5.50
2023-07-04T06:25:11.340Z,5.80
2023-07-04T06:28:14.195Z,5.25
2023-07-04T06:31:18.476Z,5.15
2023-07-04T06:34:21.114Z,5.00
2023-07-04T06:37:23.912Z,4.90
2023-07-04T06:40:26.601Z,5.18
2023-07-04T06:43:32.010Z,5.25
2023-07-04T06:46:34.615Z,5.10
2023-07-04T06:49:37.259Z,4.93
2023-07-04T06:52:40.511Z,4.70
2023-07-04T06:55:43.250Z,5.13
2023-07-04T06:58:54.722Z,5.57
2023-07-04T07:01:57.713Z,5.28
2023-07-04T07:05:00.912Z,5.45
2023-07-04T07:08:03.557Z,5.13
2023-07-04T07:11:11.609Z,5.32
2023-07-04T07:14:14.373Z,5.35
2023-07-04T07:17:17.105Z,5.40
2023-07-04T07:20:19.705Z,5.13
2023-07-04T07:23:23.395Z,4.97
2023-07-04T07:26:27.511Z,5.20
2023-07-04T07:29:30.626Z,5.35
2023-07-04T07:32:33.252Z,5.20
2023-07-04T07:35:35.866Z,5.40
2023-07-04T07:38:38.443Z,4.97
2023-07-04T07:41:44.099Z,4.88
2023-07-04T07:44:46.664Z,5.57
2023-07-04T07:47:49.314Z,5.70
2023-07-04T07:50:52.352Z,5.93
2023-07-04T07:53:57.340Z,5.00
2023-07-04T07:56:59.879Z,5.55
2023-07-04T08:00:03.078Z,5.82
2023-07-04T08:03:14.941Z,5.70
2023-07-04T08:06:27.319Z,5.50
2023-07-04T08:09:29.832Z,5.53
2023-07-04T08:12:34.831Z,5.40
2023-07-04T08:15:37.584Z,4.85
2023-07-04T08:18:41.328Z,5.30
2023-07-04T08:21:44.807Z,5.50
2023-07-04T08:24:47.511Z,4.80
2023-07-04T08:27:50.083Z,5.50
2023-07-04T08:30:52.861Z,5.43
2023-07-04T08:33:55.854Z,5.50
2023-07-04T08:36:59.028Z,5.35
2023-07-04T08:40:01.775Z,5.10
2023-07-04T08:43:07.292Z,5.38
2023-07-04T08:46:13.096Z,5.50
2023-07-04T08:49:31.976Z,5.28
2023-07-04T08:52:40.922Z,5.00
2023-07-04T08:55:53.612Z,5.33
2023-07-04T08:59:14.448Z,5.10
2023-07-04T09:02:36.817Z,5.32
2023-07-04T09:06:04.380Z,5.40
2023-07-04T09:09:42.828Z,5.50
2023-07-04T09:12:46.559Z,5.30
2023-07-04T09:15:49.288Z,5.00
2023-07-04T09:19:06.308Z,5.10
2023-07-04T09:22:10.129Z,5.15
2023-07-04T09:25:13.127Z,5.72
2023-07-04T09:28:15.978Z,5.30
2023-07-04T09:31:24.907Z,5.25
2023-07-04T09:34:43.236Z,5.32
2023-07-04T09:38:03.296Z,5.03
2023-07-04T09:41:06.061Z,5.53
2023-07-04T09:44:40.011Z,5.03
2023-07-04T09:47:49.588Z,5.20
2023-07-04T09:50:52.814Z,5.07
2023-07-04T09:54:28.489Z,5.60
2023-07-04T09:57:31.417Z,5.28
2023-07-04T10:00:34.003Z,5.13
2023-07-04T10:03:41.583Z,5.07
2023-07-04T10:06:45.683Z,5.13
2023-07-04T10:09:56.658Z,5.07
2023-07-04T10:12:59.465Z,5.70
2023-07-04T10:16:02.108Z,5.33
2023-07-04T10:19:17.180Z,5.05
2023-07-04T10:22:36.622Z,5.05
2023-07-04T10:25:39.285Z,5.32
2023-07-04T10:28:43.002Z,5.40
2023-07-04T10:31:46.297Z,5.07
2023-07-04T10:34:50.812Z,5.03
2023-07-04T10:37:59.248Z,5.22
2023-07-04T10:41:18.722Z,5.30
2023-07-04T10:44:24.904Z,5.38
2023-07-04T10:47:32.646Z,4.90
2023-07-04T10:50:39.810Z,5.50
2023-07-04T10:53:42.392Z,5.38
2023-07-04T10:56:50.626Z,5.35
2023-07-04T11:00:18.561Z,5.50
2023-07-04T11:03:29.906Z,5.17
2023-07-04T11:06:41.843Z,4.72
2023-07-04T11:09:44.554Z,5.53
2023-07-04T11:12:47.222Z,5.20
2023-07-04T11:15:57.291Z,5.63
2023-07-04T11:19:07.872Z,5.20
2023-07-04T11:22:18.241Z,5.38
2023-07-04T11:25:34.470Z,5.40
2023-07-04T11:28:36.973Z,5.50
2023-07-04T11:32:04.534Z,5.28
2023-07-04T11:35:15.210Z,5.33
2023-07-04T11:38:18.185Z,5.65
2023-07-04T11:41:33.412Z,5.55
2023-07-04T11:44:50.057Z,5.72
2023-07-04T11:48:00.365Z,5.75
2023-07-04T11:51:09.084Z,5.10
2023-07-04T11:54:13.940Z,5.18
2023-07-04T11:57:21.781Z,5.35
2023-07-04T12:00:45.163Z,5.15
2023-07-04T12:04:05.908Z,5.25
2023-07-04T12:07:13.373Z,5.30
2023-07-04T12:10:21.350Z,5.22
2023-07-04T12:13:25.752Z,5.32
2023-07-04T12:16:29.031Z,5.30
2023-07-04T12:19:31.581Z,5.28
2023-07-04T12:22:34.747Z,5.17
2023-07-04T12:25:41.723Z,5.43
2023-07-04T12:28:47.425Z,5.55
2023-07-04T12:32:02.427Z,5.47
2023-07-04T12:38:12.868Z,5.30
2023-07-04T12:41:17.228Z,4.88
2023-07-04T12:47:30.452Z,5.30
2023-07-04T12:50:36.137Z,5.10
2023-07-04T12:53:40.172Z,5.10
2023-07-04T12:56:45.916Z,5.40
2023-07-04T12:59:49.931Z,5.50
2023-07-04T13:02:53.072Z,5.10
2023-07-04T13:05:56.171Z,5.10
2023-07-04T13:08:59.569Z,4.60
2023-07-04T13:12:02.603Z,4.70
2023-07-04T13:15:22.920Z,4.95
2023-07-04T13:18:33.943Z,5.20
2023-07-04T13:21:39.382Z,5.32
2023-07-04T13:24:58.963Z,5.53
2023-07-04T13:34:31.471Z,4.93
2023-07-04T13:39:50.705Z,5.43
2023-07-04T13:40:56.433Z,4.67
2023-07-04T13:47:07.786Z,5.43
2023-07-04T13:50:15.439Z,4.97
2023-07-04T13:53:18.096Z,5.07
2023-07-04T13:56:21.141Z,5.13
2023-07-04T13:59:23.681Z,5.10
2023-07-04T14:05:42.155Z,5.20
2023-07-04T14:08:46.768Z,5.05
2023-07-04T14:11:49.368Z,4.87
2023-07-04T14:21:09.923Z,5.18
2023-07-04T14:24:12.515Z,4.90
2023-07-04T14:27:23.499Z,4.97
2023-07-04T14:30:40.707Z,5.13
2023-07-04T14:33:43.946Z,5.13
2023-07-04T14:36:46.681Z,5.28
2023-07-04T14:39:53.819Z,4.90
2023-07-04T14:42:56.420Z,5.17
2023-07-04T14:46:00.179Z,5.13
2023-07-04T14:49:02.807Z,4.90
2023-07-04T14:52:05.936Z,5.30
2023-07-04T14:55:09.790Z,5.47
2023-07-04T14:58:12.532Z,4.93
2023-07-04T15:01:18.917Z,5.10
2023-07-04T15:04:22.812Z,5.15
2023-07-04T15:07:25.897Z,4.93
2023-07-04T15:10:28.396Z,5.28
2023-07-04T15:13:31.310Z,5.33
2023-07-04T15:16:34.088Z,4.93
2023-07-04T15:19:36.656Z,5.13
2023-07-04T15:22:39.840Z,5.45
2023-07-04T15:25:44.787Z,5.57
2023-07-04T15:28:49.193Z,5.03
2023-07-04T15:31:55.864Z,5.03
2023-07-04T15:34:58.489Z,5.13
2023-07-04T15:38:01.035Z,4.93
2023-07-04T15:41:05.870Z,5.25
2023-07-04T15:44:10.709Z,5.37
2023-07-04T15:47:13.354Z,4.80
2023-07-04T15:50:16.588Z,4.88
2023-07-04T15:53:19.133Z,4.75
2023-07-04T15:56:25.365Z,4.80
2023-07-04T15:59:28.157Z,4.90
2023-07-04T16:02:30.835Z,5.60
2023-07-04T16:05:33.745Z,4.82
2023-07-04T16:08:39.146Z,5.18
2023-07-04T16:11:41.928Z,5.25
2023-07-04T16:14:44.488Z,5.10
2023-07-04T16:17:47.100Z,4.95
2023-07-04T16:20:52.840Z,5.68
2023-07-04T16:23:55.478Z,4.97
2023-07-04T16:26:58.200Z,5.40
2023-07-04T16:30:01.871Z,4.87
2023-07-04T16:33:04.758Z,5.03
2023-07-04T16:36:07.427Z,4.78
2023-07-04T16:39:11.069Z,4.97
2023-07-04T16:42:13.842Z,4.60
2023-07-04T16:45:16.568Z,5.00
2023-07-04T16:48:19.203Z,5.40
2023-07-04T16:51:21.891Z,5.20
2023-07-04T16:54:26.415Z,4.65
2023-07-04T16:57:29.084Z,4.88
2023-07-04T17:00:32.461Z,4.87
2023-07-04T17:03:35.106Z,5.40
2023-07-04T17:06:38.240Z,4.88
2023-07-04T17:09:40.803Z,4.95
2023-07-04T17:12:43.389Z,4.93
2023-07-04T17:15:55.183Z,5.40
2023-07-04T17:18:57.984Z,4.72
2023-07-04T17:22:00.586Z,4.80
2023-07-04T17:25:12.111Z,5.00
2023-07-04T17:28:17.495Z,4.88
2023-07-04T17:31:20.192Z,4.63
2023-07-04T17:34:23.617Z,4.75
2023-07-04T17:37:26.308Z,4.72
2023-07-04T17:40:29.871Z,5.13
2023-07-04T17:43:32.475Z,5.20
2023-07-04T17:46:35.655Z,4.50
2023-07-04T17:49:38.442Z,4.85
2023-07-04T17:52:40.962Z,5.05
2023-07-04T17:55:44.090Z,4.68
2023-07-04T17:58:48.247Z,5.28
2023-07-04T18:01:51.709Z,4.93
2023-07-04T18:04:55.838Z,4.88
2023-07-04T18:07:58.372Z,4.80
2023-07-04T18:11:06.247Z,4.68
2023-07-04T18:14:09.813Z,4.68
2023-07-04T18:17:13.258Z,4.80
2023-07-04T18:20:16.558Z,5.00
2023-07-04T18:23:20.256Z,4.40
2023-07-04T18:26:24.335Z,4.95
2023-07-04T18:29:27.043Z,4.72
2023-07-04T18:32:31.576Z,5.20
2023-07-04T18:35:34.212Z,4.75
2023-07-04T18:38:37.389Z,4.80
2023-07-04T18:41:41.494Z,4.85
2023-07-04T18:44:44.316Z,5.07
2023-07-04T18:47:51.153Z,4.83
2023-07-04T18:50:54.378Z,4.70
2023-07-04T18:54:01.864Z,4.88
2023-07-04T18:57:05.100Z,4.70
2023-07-04T19:00:09.454Z,4.78
2023-07-04T19:03:13.223Z,3.97
2023-07-04T19:06:19.066Z,4.55
2023-07-04T19:09:22.741Z,5.05
2023-07-04T19:12:26.649Z,4.55
2023-07-04T19:15:30.627Z,4.50
2023-07-04T19:18:34.357Z,4.90
2023-07-04T19:21:39.782Z,5.00
2023-07-04T19:24:45.130Z,4.95
2023-07-04T19:27:52.522Z,5.03
2023-07-04T19:31:05.270Z,5.00
2023-07-04T19:34:14.040Z,4.40
2023-07-04T19:37:19.839Z,4.72
2023-07-04T19:40:27.968Z,4.97
2023-07-04T19:43:33.315Z,4.55
2023-07-04T19:46:38.403Z,4.50
2023-07-04T19:49:44.466Z,4.30
2023-07-04T19:52:48.859Z,4.30
2023-07-04T19:56:02.841Z,4.53
2023-07-04T19:59:07.757Z,4.72
2023-07-04T20:02:12.916Z,5.05
2023-07-04T20:05:17.214Z,4.67
2023-07-04T20:08:20.911Z,4.68
2023-07-04T20:11:26.159Z,4.60
2023-07-04T20:14:32.905Z,4.53
2023-07-04T20:17:37.443Z,4.97
2023-07-04T20:20:43.082Z,4.70
2023-07-04T20:23:46.811Z,4.90
2023-07-04T20:26:50.881Z,4.68
2023-07-04T20:29:53.696Z,4.10
2023-07-04T20:32:56.885Z,4.75
2023-07-04T20:36:00.567Z,4.60
2023-07-04T20:39:04.302Z,4.13
2023-07-04T20:42:07.438Z,4.40
2023-07-04T20:45:13.359Z,4.25
2023-07-04T20:48:17.311Z,4.45
2023-07-04T20:51:20.656Z,4.73
2023-07-04T20:54:23.446Z,4.40
2023-07-04T20:57:26.793Z,4.88
2023-07-04T21:00:29.417Z,4.40
2023-07-04T21:03:32.141Z,4.30
2023-07-04T21:06:35.630Z,4.30
2023-07-04T21:09:38.191Z,4.50
2023-07-04T21:12:41.254Z,4.25
2023-07-04T21:15:43.961Z,4.38
2023-07-04T21:18:46.518Z,4.43
2023-07-04T21:21:49.667Z,4.37
2023-07-04T21:24:52.304Z,4.97
2023-07-04T21:27:54.889Z,4.60
2023-07-04T21:31:09.609Z,4.32
2023-07-04T21:34:12.517Z,4.40
2023-07-04T21:37:15.273Z,4.17
2023-07-04T21:40:19.824Z,4.40
2023-07-04T21:43:22.673Z,4.03
2023-07-04T21:46:25.319Z,4.43
2023-07-04T21:49:28.523Z,4.28
2023-07-04T21:52:31.091Z,4.00
2023-07-04T21:55:33.657Z,4.18
2023-07-04T21:58:36.982Z,3.97
2023-07-04T22:01:40.141Z,4.43
2023-07-04T22:04:42.737Z,4.53
2023-07-04T22:07:45.267Z,3.97
2023-07-04T22:10:59.166Z,4.55
2023-07-04T22:14:02.238Z,4.78
2023-07-04T22:17:06.217Z,4.28
2023-07-04T22:20:09.441Z,4.10
2023-07-04T22:23:12.200Z,4.30
2023-07-04T22:26:15.158Z,4.40
2023-07-04T22:29:17.910Z,4.40
2023-07-04T22:32:20.565Z,4.43
2023-07-04T22:35:23.323Z,4.47
2023-07-04T22:38:26.422Z,4.10
2023-07-04T22:41:29.481Z,4.20
2023-07-04T22:44:32.135Z,4.03
2023-07-04T22:47:34.896Z,3.72
2023-07-04T22:50:37.582Z,4.10
2023-07-04T22:53:40.339Z,4.07
2023-07-04T22:56:42.883Z,3.78
2023-07-04T22:59:45.479Z,4.20
2023-07-04T23:02:49.207Z,3.95
2023-07-04T23:05:54.954Z,4.22
2023-07-04T23:08:57.751Z,4.20
2023-07-04T23:12:01.796Z,4.05
2023-07-04T23:15:04.620Z,4.28
2023-07-04T23:18:07.301Z,4.28
2023-07-04T23:21:10.384Z,4.20
2023-07-04T23:24:12.952Z,4.00
2023-07-04T23:27:15.439Z,4.25
2023-07-04T23:30:17.923Z,3.85
2023-07-04T23:33:20.549Z,4.32
2023-07-04T23:36:23.307Z,4.38
2023-07-04T23:39:25.904Z,3.93
2023-07-04T23:42:28.386Z,3.85
2023-07-04T23:45:30.951Z,4.22
2023-07-04T23:48:33.520Z,3.88
2023-07-04T23:51:36.083Z,4.85
2023-07-04T23:54:39.143Z,4.03
2023-07-04T23:57:41.925Z,3.90
